Airfield :
LOGIN :

Register | Disclaimer

   EN    FR    IT 

 










Legend :    VFR   Marginal VFR   IFR   Intensive IFR   Very Intensive IFR
Visi :
Ceiling :
>= 8 km
>= 3000ft
5 to 8 km
1000 to 3000 ft
1500m to 5 km
500 to 1000 ft
800 to 1500m
200 to 500 ft
< 800m
< 200 ft
Symbols :   Thunderstorms  Fog  Heavy snow  Heavy precipitations  Wind > 20 kt
SIGMETs :     Misc.  Thunderstorms  Icing  Turbulence  Mountain Waves  Volcanic Ashes







- Airport Elevation : 100 ft


EBDT - Schaffen

CURRENT METAR :
  • 191625Z AUTO 33003KT 9999 SCT075/// 15/09 Q1020 BLU

EXPIRED METARs :
  • 191555Z AUTO 33003KT 9999 FEW055/// SCT080/// BKN240/// 16/10 Q1019 BLU
  • 191525Z AUTO 32006KT 9999 FEW037/// SCT070/// 17/08 Q1019 BLU
  • 191455Z 35005KT 9999 FEW034 SCT050 BKN250 17/09 Q1019 BLU FCST CANCEL
  • 191441Z 30005KT 9999 FEW033 SCT045 BKN250 17/09 Q1019 BLU FCST CANCEL
  • 191425Z 30006KT 9999 FEW033 SCT045 BKN250 17/08 Q1019 BLU BLU
  • 191422Z 29006KT 9999 FEW030 SCT040 BKN250 18/10 Q1019 BLU BLU
  • 191355Z 31006KT 9999 FEW030 SCT040 17/09 Q1019 BLU BLU TEMPO WHT

TAF TAF EBDT
Valid from the 19 at 13:00 until the 19 at 22:00 UTC


191141Z 1913/1922 25006KT 9999 FEW020 SCT050
TEMPO 1913/1919 31009KT 5000 -SHRA SCT020 BKN030
No reported NOTAMs for that airfield.



MET'MAP, your aeronautical weather chart ! - Copyright ORBIFLY December 2007 - Disclaimer

ORBIFLY MET'MAP TEAM :

Programming & Development : Alexandra Zaïnal
Concept & Development : Baudouin d'Aumeries
Co-Development & Prog : Marc-Olivier Méhu
Technical & hardware support : Manuel Goepfert

Contact : metmap@orbifly.com




SOURCES & CREDITS :

   NOAA